sensor_id;sensor_type;location;lat;lon;timestamp;pressure;altitude;pressure_sealevel;temperature;humidity
12471;BME280;36499;46.484;13.832;2023-07-20T00:02:04;92894.63;;;18.36;99.24
12471;BME280;36499;46.484;13.832;2023-07-20T00:04:33;92893.84;;;18.41;98.82
12471;BME280;36499;46.484;13.832;2023-07-20T00:07:01;92894.63;;;18.41;98.88
12471;BME280;36499;46.484;13.832;2023-07-20T00:09:28;92893.03;;;18.45;98.62
12471;BME280;36499;46.484;13.832;2023-07-20T00:11:55;92895.44;;;18.52;97.54
12471;BME280;36499;46.484;13.832;2023-07-20T00:14:23;92885.41;;;18.54;97.51
12471;BME280;36499;46.484;13.832;2023-07-20T00:16:51;92888.59;;;18.56;96.97
12471;BME280;36499;46.484;13.832;2023-07-20T00:19:22;92904.13;;;18.57;96.59
12471;BME280;36499;46.484;13.832;2023-07-20T00:21:49;92907.06;;;18.56;96.55
12471;BME280;36499;46.484;13.832;2023-07-20T00:24:18;92889.88;;;18.53;96.43
12471;BME280;36499;46.484;13.832;2023-07-20T00:26:45;92899.94;;;18.51;96.20
12471;BME280;36499;46.484;13.832;2023-07-20T00:29:12;92895.94;;;18.44;96.55
12471;BME280;36499;46.484;13.832;2023-07-20T00:31:39;92898.59;;;18.44;96.35
12471;BME280;36499;46.484;13.832;2023-07-20T00:34:06;92890.38;;;18.45;96.47
12471;BME280;36499;46.484;13.832;2023-07-20T00:36:33;92889.38;;;18.51;96.27
12471;BME280;36499;46.484;13.832;2023-07-20T00:39:00;92883.25;;;18.51;95.78
12471;BME280;36499;46.484;13.832;2023-07-20T00:41:28;92883.56;;;18.54;95.85
12471;BME280;36499;46.484;13.832;2023-07-20T00:43:55;92888.31;;;18.52;95.84
12471;BME280;36499;46.484;13.832;2023-07-20T00:46:23;92889.88;;;18.53;95.15
12471;BME280;36499;46.484;13.832;2023-07-20T00:48:52;92900.72;;;18.52;95.48
12471;BME280;36499;46.484;13.832;2023-07-20T00:51:21;92897.78;;;18.43;95.44
12471;BME280;36499;46.484;13.832;2023-07-20T00:53:49;92893.06;;;18.25;97.03
12471;BME280;36499;46.484;13.832;2023-07-20T00:56:17;92880.38;;;18.17;98.17
12471;BME280;36499;46.484;13.832;2023-07-20T00:58:46;92885.63;;;18.12;98.08
12471;BME280;36499;46.484;13.832;2023-07-20T01:01:13;92881.69;;;18.19;97.93
12471;BME280;36499;46.484;13.832;2023-07-20T01:03:40;92876.94;;;18.16;97.59
12471;BME280;36499;46.484;13.832;2023-07-20T01:06:18;92878.78;;;18.21;97.42
12471;BME280;36499;46.484;13.832;2023-07-20T01:09:02;92876.41;;;18.09;97.65
12471;BME280;36499;46.484;13.832;2023-07-20T01:11:39;92885.38;;;17.98;98.87
12471;BME280;36499;46.484;13.832;2023-07-20T01:14:12;92879.56;;;17.91;99.22
12471;BME280;36499;46.484;13.832;2023-07-20T01:16:40;92873.75;;;17.84;99.79
12471;BME280;36499;46.484;13.832;2023-07-20T01:19:07;92871.38;;;17.93;99.04
12471;BME280;36499;46.484;13.832;2023-07-20T01:21:44;92869.00;;;18.01;98.69
12471;BME280;36499;46.484;13.832;2023-07-20T01:24:44;92862.16;;;18.00;98.79
12471;BME280;36499;46.484;13.832;2023-07-20T01:28:01;92857.94;;;18.04;98.38
12471;BME280;36499;46.484;13.832;2023-07-20T01:30:55;92862.94;;;18.01;94.95
12471;BME280;36499;46.484;13.832;2023-07-20T01:33:25;92860.31;;;18.01;93.44
12471;BME280;36499;46.484;13.832;2023-07-20T01:35:56;92864.81;;;17.95;93.34
12471;BME280;36499;46.484;13.832;2023-07-20T01:38:25;92865.84;;;17.89;94.23
12471;BME280;36499;46.484;13.832;2023-07-20T01:40:52;92863.72;;;17.81;95.49
12471;BME280;36499;46.484;13.832;2023-07-20T01:43:20;92873.22;;;17.72;97.78
12471;BME280;36499;46.484;13.832;2023-07-20T01:45:47;92871.09;;;17.74;98.47
12471;BME280;36499;46.484;13.832;2023-07-20T01:48:14;92867.13;;;17.66;99.48
12471;BME280;36499;46.484;13.832;2023-07-20T01:50:43;92857.34;;;17.62;100.00
12471;BME280;36499;46.484;13.832;2023-07-20T01:53:10;92872.13;;;17.63;100.00
12471;BME280;36499;46.484;13.832;2023-07-20T01:55:37;92870.56;;;17.67;100.00
12471;BME280;36499;46.484;13.832;2023-07-20T01:58:04;92868.72;;;17.72;99.91
12471;BME280;36499;46.484;13.832;2023-07-20T02:00:32;92880.06;;;17.78;99.38
12471;BME280;36499;46.484;13.832;2023-07-20T02:02:59;92880.06;;;17.68;98.81
12471;BME280;36499;46.484;13.832;2023-07-20T02:05:26;92885.84;;;17.60;99.79
12471;BME280;36499;46.484;13.832;2023-07-20T02:07:54;92886.09;;;17.63;100.00
12471;BME280;36499;46.484;13.832;2023-07-20T02:10:21;92875.31;;;17.65;100.00
12471;BME280;36499;46.484;13.832;2023-07-20T02:12:48;92885.31;;;17.63;100.00
12471;BME280;36499;46.484;13.832;2023-07-20T02:15:15;92885.31;;;17.68;99.06
12471;BME280;36499;46.484;13.832;2023-07-20T02:17:44;92884.53;;;17.67;98.77
12471;BME280;36499;46.484;13.832;2023-07-20T02:20:11;92878.19;;;17.63;99.72
12471;BME280;36499;46.484;13.832;2023-07-20T02:22:40;92880.81;;;17.63;99.23
12471;BME280;36499;46.484;13.832;2023-07-20T02:25:09;92879.75;;;17.59;99.68
12471;BME280;36499;46.484;13.832;2023-07-20T02:27:37;92874.69;;;17.48;100.00
12471;BME280;36499;46.484;13.832;2023-07-20T02:30:06;92873.09;;;17.47;100.00
12471;BME280;36499;46.484;13.832;2023-07-20T02:32:36;92876.81;;;17.46;100.00
12471;BME280;36499;46.484;13.832;2023-07-20T02:35:04;92884.66;;;17.31;100.00
12471;BME280;36499;46.484;13.832;2023-07-20T02:37:32;92890.22;;;17.34;100.00
12471;BME280;36499;46.484;13.832;2023-07-20T02:39:59;92887.03;;;17.32;100.00
12471;BME280;36499;46.484;13.832;2023-07-20T02:42:28;92887.25;;;17.20;100.00
12471;BME280;36499;46.484;13.832;2023-07-20T02:44:55;92902.84;;;17.32;100.00
12471;BME280;36499;46.484;13.832;2023-07-20T02:47:22;92904.94;;;17.35;100.00
12471;BME280;36499;46.484;13.832;2023-07-20T02:49:49;92901.00;;;17.33;100.00
12471;BME280;36499;46.484;13.832;2023-07-20T02:52:16;92899.94;;;17.34;100.00
12471;BME280;36499;46.484;13.832;2023-07-20T02:54:43;92907.84;;;17.39;100.00
12471;BME280;36499;46.484;13.832;2023-07-20T02:57:10;92915.25;;;17.37;99.81
12471;BME280;36499;46.484;13.832;2023-07-20T02:59:39;92908.66;;;17.39;99.69
12471;BME280;36499;46.484;13.832;2023-07-20T03:02:06;92900.50;;;17.41;99.35
12471;BME280;36499;46.484;13.832;2023-07-20T03:04:35;92902.34;;;17.40;99.14
12471;BME280;36499;46.484;13.832;2023-07-20T03:07:04;92898.63;;;17.36;98.77
12471;BME280;36499;46.484;13.832;2023-07-20T03:09:31;92900.75;;;17.34;98.61
12471;BME280;36499;46.484;13.832;2023-07-20T03:11:58;92904.94;;;17.35;99.15
12471;BME280;36499;46.484;13.832;2023-07-20T03:14:25;92909.44;;;17.40;98.90
12471;BME280;36499;46.484;13.832;2023-07-20T03:16:53;92906.75;;;17.24;99.15
12471;BME280;36499;46.484;13.832;2023-07-20T03:19:21;92910.16;;;17.15;99.84
12471;BME280;36499;46.484;13.832;2023-07-20T03:21:48;92912.19;;;17.03;100.00
12471;BME280;36499;46.484;13.832;2023-07-20T03:24:15;92909.59;;;17.08;100.00
12471;BME280;36499;46.484;13.832;2023-07-20T03:26:42;92905.66;;;17.10;100.00
12471;BME280;36499;46.484;13.832;2023-07-20T03:29:09;92906.97;;;17.08;99.77
12471;BME280;36499;46.484;13.832;2023-07-20T03:31:36;92924.38;;;17.14;99.67
12471;BME280;36499;46.484;13.832;2023-07-20T03:34:05;92914.88;;;17.13;98.93
12471;BME280;36499;46.484;13.832;2023-07-20T03:36:34;92919.34;;;17.12;97.82
12471;BME280;36499;46.484;13.832;2023-07-20T03:39:01;92918.03;;;17.10;97.89
12471;BME280;36499;46.484;13.832;2023-07-20T03:41:28;92916.69;;;17.07;97.30
12471;BME280;36499;46.484;13.832;2023-07-20T03:43:55;92915.91;;;17.07;98.22
12471;BME280;36499;46.484;13.832;2023-07-20T03:46:23;92915.38;;;17.10;98.12
12471;BME280;36499;46.484;13.832;2023-07-20T03:48:50;92919.34;;;17.07;98.35
12471;BME280;36499;46.484;13.832;2023-07-20T03:51:18;92928.81;;;17.08;98.20
12471;BME280;36499;46.484;13.832;2023-07-20T03:53:45;92925.41;;;17.13;97.87
12471;BME280;36499;46.484;13.832;2023-07-20T03:56:13;92928.31;;;17.11;98.01
12471;BME280;36499;46.484;13.832;2023-07-20T03:58:40;92930.38;;;17.04;98.96
12471;BME280;36499;46.484;13.832;2023-07-20T04:01:07;92931.94;;;17.05;99.69
12471;BME280;36499;46.484;13.832;2023-07-20T04:03:35;92933.56;;;17.06;99.68
12471;BME280;36499;46.484;13.832;2023-07-20T04:06:02;92929.31;;;17.05;100.00
12471;BME280;36499;46.484;13.832;2023-07-20T04:08:31;92938.56;;;17.08;100.00
12471;BME280;36499;46.484;13.832;2023-07-20T04:11:01;92940.69;;;17.16;99.68
12471;BME280;36499;46.484;13.832;2023-07-20T04:13:28;92936.78;;;17.23;99.47
12471;BME280;36499;46.484;13.832;2023-07-20T04:15:59;92929.69;;;17.24;99.31
12471;BME280;36499;46.484;13.832;2023-07-20T04:18:26;92938.09;;;17.21;98.87
12471;BME280;36499;46.484;13.832;2023-07-20T04:20:53;92937.03;;;17.17;99.28
12471;BME280;36499;46.484;13.832;2023-07-20T04:23:20;92937.84;;;17.22;99.44
12471;BME280;36499;46.484;13.832;2023-07-20T04:25:48;92942.06;;;17.23;99.31
12471;BME280;36499;46.484;13.832;2023-07-20T04:28:15;92942.63;;;17.31;99.53
12471;BME280;36499;46.484;13.832;2023-07-20T04:30:42;92943.72;;;17.35;99.57
12471;BME280;36499;46.484;13.832;2023-07-20T04:33:09;92947.38;;;17.34;99.39
12471;BME280;36499;46.484;13.832;2023-07-20T04:35:51;92954.81;;;17.42;99.61
12471;BME280;36499;46.484;13.832;2023-07-20T04:38:18;92949.19;;;17.23;100.00
12471;BME280;36499;46.484;13.832;2023-07-20T04:40:49;92949.47;;;17.32;100.00
12471;BME280;36499;46.484;13.832;2023-07-20T04:43:17;92951.91;;;17.38;100.00
12471;BME280;36499;46.484;13.832;2023-07-20T04:45:45;92951.09;;;17.43;100.00
12471;BME280;36499;46.484;13.832;2023-07-20T04:48:16;92954.03;;;17.51;100.00
12471;BME280;36499;46.484;13.832;2023-07-20T04:50:45;92948.84;;;17.61;100.00
12471;BME280;36499;46.484;13.832;2023-07-20T04:53:13;92949.66;;;17.67;99.51
12471;BME280;36499;46.484;13.832;2023-07-20T04:55:40;92950.97;;;17.69;99.44
12471;BME280;36499;46.484;13.832;2023-07-20T04:58:17;92941.75;;;17.77;98.61
12471;BME280;36499;46.484;13.832;2023-07-20T05:00:45;92953.38;;;17.81;98.72
12471;BME280;36499;46.484;13.832;2023-07-20T05:03:12;92953.38;;;17.81;99.57
12471;BME280;36499;46.484;13.832;2023-07-20T05:05:39;92943.66;;;17.87;99.72
12471;BME280;36499;46.484;13.832;2023-07-20T05:08:06;92947.63;;;17.94;99.32
12471;BME280;36499;46.484;13.832;2023-07-20T05:10:33;92951.84;;;18.00;99.69
12471;BME280;36499;46.484;13.832;2023-07-20T05:13:00;92951.63;;;18.07;99.45
12471;BME280;36499;46.484;13.832;2023-07-20T05:15:29;92957.16;;;18.10;99.11
12471;BME280;36499;46.484;13.832;2023-07-20T05:17:56;92956.63;;;18.23;98.89
12471;BME280;36499;46.484;13.832;2023-07-20T05:20:23;92951.63;;;18.22;98.46
12471;BME280;36499;46.484;13.832;2023-07-20T05:22:50;92950.31;;;18.30;97.97
12471;BME280;36499;46.484;13.832;2023-07-20T05:25:18;92941.34;;;18.51;98.59
12471;BME280;36499;46.484;13.832;2023-07-20T05:27:48;92943.50;;;18.59;97.53
12471;BME280;36499;46.484;13.832;2023-07-20T05:30:16;92932.13;;;18.58;96.57
12471;BME280;36499;46.484;13.832;2023-07-20T05:32:45;92930.00;;;18.50;96.42
12471;BME280;36499;46.484;13.832;2023-07-20T05:35:17;92934.53;;;18.55;96.80
12471;BME280;36499;46.484;13.832;2023-07-20T05:37:44;92931.31;;;18.48;96.79
12471;BME280;36499;46.484;13.832;2023-07-20T05:40:12;92932.41;;;18.52;97.15
12471;BME280;36499;46.484;13.832;2023-07-20T05:42:40;92933.19;;;18.57;97.04
12471;BME280;36499;46.484;13.832;2023-07-20T05:45:08;92936.09;;;18.71;96.37
12471;BME280;36499;46.484;13.832;2023-07-20T05:47:35;92943.75;;;18.83;96.25
12471;BME280;36499;46.484;13.832;2023-07-20T05:50:05;92932.63;;;18.96;95.37
12471;BME280;36499;46.484;13.832;2023-07-20T05:52:32;92936.81;;;19.07;95.08
12471;BME280;36499;46.484;13.832;2023-07-20T05:54:59;92937.34;;;19.14;95.03
12471;BME280;36499;46.484;13.832;2023-07-20T05:57:26;92927.53;;;19.25;93.96
12471;BME280;36499;46.484;13.832;2023-07-20T05:59:53;92933.59;;;19.30;92.98
12471;BME280;36499;46.484;13.832;2023-07-20T06:02:20;92932.78;;;19.40;93.21
12471;BME280;36499;46.484;13.832;2023-07-20T06:04:47;92933.84;;;19.44;92.55
12471;BME280;36499;46.484;13.832;2023-07-20T06:07:16;92932.50;;;19.51;91.42
12471;BME280;36499;46.484;13.832;2023-07-20T06:09:44;92929.31;;;19.54;91.69
12471;BME280;36499;46.484;13.832;2023-07-20T06:12:11;92933.81;;;19.49;91.15
12471;BME280;36499;46.484;13.832;2023-07-20T06:14:41;92930.84;;;19.71;91.14
12471;BME280;36499;46.484;13.832;2023-07-20T06:17:08;92926.78;;;19.88;91.40
12471;BME280;36499;46.484;13.832;2023-07-20T06:19:35;92923.56;;;19.96;89.72
12471;BME280;36499;46.484;13.832;2023-07-20T06:22:03;92920.56;;;20.08;89.89
12471;BME280;36499;46.484;13.832;2023-07-20T06:24:32;92922.88;;;20.20;90.50
12471;BME280;36499;46.484;13.832;2023-07-20T06:26:59;92919.31;;;20.39;88.10
12471;BME280;36499;46.484;13.832;2023-07-20T06:29:26;92915.56;;;20.45;85.43
12471;BME280;36499;46.484;13.832;2023-07-20T06:31:53;92917.50;;;20.69;85.69
12471;BME280;36499;46.484;13.832;2023-07-20T06:34:20;92917.63;;;20.82;83.95
12471;BME280;36499;46.484;13.832;2023-07-20T06:36:47;92914.94;;;20.87;81.81
12471;BME280;36499;46.484;13.832;2023-07-20T06:39:16;92910.44;;;20.88;81.97
12471;BME280;36499;46.484;13.832;2023-07-20T06:41:44;92905.50;;;21.05;82.85
12471;BME280;36499;46.484;13.832;2023-07-20T06:44:11;92903.00;;;21.19;81.61
12471;BME280;36499;46.484;13.832;2023-07-20T06:46:39;92896.50;;;21.30;82.13
12471;BME280;36499;46.484;13.832;2023-07-20T06:49:07;92898.47;;;21.43;79.36
12471;BME280;36499;46.484;13.832;2023-07-20T06:51:34;92900.69;;;21.36;78.87
12471;BME280;36499;46.484;13.832;2023-07-20T06:54:02;92900.97;;;21.34;78.22
12471;BME280;36499;46.484;13.832;2023-07-20T06:56:30;92896.25;;;21.50;78.27
12471;BME280;36499;46.484;13.832;2023-07-20T06:58:58;92893.50;;;21.60;77.44
12471;BME280;36499;46.484;13.832;2023-07-20T07:01:25;92896.03;;;21.70;78.02
12471;BME280;36499;46.484;13.832;2023-07-20T07:03:52;92894.44;;;21.69;76.26
12471;BME280;36499;46.484;13.832;2023-07-20T07:06:19;92899.19;;;21.72;76.74
12471;BME280;36499;46.484;13.832;2023-07-20T07:08:48;92891.44;;;21.76;77.09
12471;BME280;36499;46.484;13.832;2023-07-20T07:11:15;92896.66;;;21.81;78.49
12471;BME280;36499;46.484;13.832;2023-07-20T07:13:42;92898.63;;;21.75;77.67
12471;BME280;36499;46.484;13.832;2023-07-20T07:16:10;92899.53;;;21.84;77.46
12471;BME280;36499;46.484;13.832;2023-07-20T07:18:37;92903.13;;;21.98;75.39
12471;BME280;36499;46.484;13.832;2023-07-20T07:21:06;92897.50;;;22.19;74.69
12471;BME280;36499;46.484;13.832;2023-07-20T07:23:33;92896.84;;;22.27;73.23
12471;BME280;36499;46.484;13.832;2023-07-20T07:26:00;92896.88;;;22.59;72.82
12471;BME280;36499;46.484;13.832;2023-07-20T07:28:28;92896.31;;;22.62;72.50
12471;BME280;36499;46.484;13.832;2023-07-20T07:30:55;92897.16;;;22.76;72.25
12471;BME280;36499;46.484;13.832;2023-07-20T07:33:24;92891.28;;;22.93;70.73
12471;BME280;36499;46.484;13.832;2023-07-20T07:35:52;92891.28;;;22.93;69.60
12471;BME280;36499;46.484;13.832;2023-07-20T07:38:19;92894.34;;;23.00;69.62
12471;BME280;36499;46.484;13.832;2023-07-20T07:40:46;92894.00;;;23.20;69.35
12471;BME280;36499;46.484;13.832;2023-07-20T07:43:14;92905.50;;;23.29;67.85
12471;BME280;36499;46.484;13.832;2023-07-20T07:45:41;92897.47;;;23.48;65.45
12471;BME280;36499;46.484;13.832;2023-07-20T07:48:08;92890.81;;;23.86;66.84
12471;BME280;36499;46.484;13.832;2023-07-20T07:50:38;92887.13;;;24.23;68.33
12471;BME280;36499;46.484;13.832;2023-07-20T07:53:07;92887.41;;;24.58;67.48
12471;BME280;36499;46.484;13.832;2023-07-20T07:55:35;92883.06;;;24.93;66.10
12471;BME280;36499;46.484;13.832;2023-07-20T07:58:02;92893.47;;;25.25;65.44
12471;BME280;36499;46.484;13.832;2023-07-20T08:00:30;92887.78;;;25.57;64.58
12471;BME280;36499;46.484;13.832;2023-07-20T08:02:57;92889.44;;;25.75;62.57
12471;BME280;36499;46.484;13.832;2023-07-20T08:05:24;92890.28;;;26.02;61.69
12471;BME280;36499;46.484;13.832;2023-07-20T08:07:53;92880.88;;;26.21;61.70
12471;BME280;36499;46.484;13.832;2023-07-20T08:10:20;92880.25;;;26.33;59.75
12471;BME280;36499;46.484;13.832;2023-07-20T08:12:47;92876.47;;;26.25;58.18
12471;BME280;36499;46.484;13.832;2023-07-20T08:15:14;92869.53;;;26.16;58.34
12471;BME280;36499;46.484;13.832;2023-07-20T08:17:41;92883.53;;;26.21;60.19
12471;BME280;36499;46.484;13.832;2023-07-20T08:20:10;92886.50;;;25.94;58.43
12471;BME280;36499;46.484;13.832;2023-07-20T08:22:38;92886.97;;;26.05;58.08
12471;BME280;36499;46.484;13.832;2023-07-20T08:25:07;92876.47;;;26.17;60.04
12471;BME280;36499;46.484;13.832;2023-07-20T08:27:36;92871.91;;;26.26;57.89
12471;BME280;36499;46.484;13.832;2023-07-20T08:30:05;92870.81;;;26.44;57.37
12471;BME280;36499;46.484;13.832;2023-07-20T08:32:33;92874.41;;;26.65;56.37
12471;BME280;36499;46.484;13.832;2023-07-20T08:35:00;92863.25;;;26.89;56.19
12471;BME280;36499;46.484;13.832;2023-07-20T08:37:28;92858.69;;;26.90;56.92
12471;BME280;36499;46.484;13.832;2023-07-20T08:39:55;92859.63;;;26.77;54.66
12471;BME280;36499;46.484;13.832;2023-07-20T08:42:24;92856.66;;;26.52;55.53
12471;BME280;36499;46.484;13.832;2023-07-20T08:44:54;92857.13;;;26.63;54.93
12471;BME280;36499;46.484;13.832;2023-07-20T08:47:24;92856.66;;;26.61;56.60
12471;BME280;36499;46.484;13.832;2023-07-20T08:49:54;92858.50;;;26.95;55.12
12471;BME280;36499;46.484;13.832;2023-07-20T08:52:22;92855.72;;;27.29;57.15
12471;BME280;36499;46.484;13.832;2023-07-20T08:54:50;92855.03;;;27.49;54.42
12471;BME280;36499;46.484;13.832;2023-07-20T08:57:22;92859.38;;;27.62;53.50
12471;BME280;36499;46.484;13.832;2023-07-20T08:59:51;92850.53;;;27.91;53.15
12471;BME280;36499;46.484;13.832;2023-07-20T09:02:23;92847.13;;;27.82;51.93
12471;BME280;36499;46.484;13.832;2023-07-20T09:04:52;92852.75;;;27.89;51.70
12471;BME280;36499;46.484;13.832;2023-07-20T09:07:20;92857.97;;;27.86;52.10
12471;BME280;36499;46.484;13.832;2023-07-20T09:09:47;92851.78;;;27.94;50.38
12471;BME280;36499;46.484;13.832;2023-07-20T09:12:14;92854.84;;;27.84;51.02
12471;BME280;36499;46.484;13.832;2023-07-20T09:14:44;92854.31;;;27.90;50.31
12471;BME280;36499;46.484;13.832;2023-07-20T09:17:15;92850.16;;;27.81;50.70
12471;BME280;36499;46.484;13.832;2023-07-20T09:19:46;92851.06;;;27.85;50.52
12471;BME280;36499;46.484;13.832;2023-07-20T09:22:14;92848.00;;;27.95;50.19
12471;BME280;36499;46.484;13.832;2023-07-20T09:24:42;92853.53;;;27.69;49.78
12471;BME280;36499;46.484;13.832;2023-07-20T09:27:09;92847.78;;;27.79;52.68
12471;BME280;36499;46.484;13.832;2023-07-20T09:29:49;92840.53;;;27.50;50.03
12471;BME280;36499;46.484;13.832;2023-07-20T09:32:19;92839.69;;;27.58;51.19
12471;BME280;36499;46.484;13.832;2023-07-20T09:34:48;92838.84;;;27.66;49.73
12471;BME280;36499;46.484;13.832;2023-07-20T09:37:20;92842.09;;;27.81;51.07
12471;BME280;36499;46.484;13.832;2023-07-20T09:39:48;92847.34;;;27.98;50.39
12471;BME280;36499;46.484;13.832;2023-07-20T09:42:18;92847.81;;;28.00;50.76
12471;BME280;36499;46.484;13.832;2023-07-20T09:44:46;92841.72;;;27.91;50.13
12471;BME280;36499;46.484;13.832;2023-07-20T09:47:22;92833.41;;;27.84;50.63
12471;BME280;36499;46.484;13.832;2023-07-20T09:49:49;92828.13;;;27.66;50.99
12471;BME280;36499;46.484;13.832;2023-07-20T09:52:16;92831.56;;;27.76;52.82
12471;BME280;36499;46.484;13.832;2023-07-20T09:54:46;92836.81;;;27.93;52.36
12471;BME280;36499;46.484;13.832;2023-07-20T09:57:13;92827.00;;;27.97;50.51
12471;BME280;36499;46.484;13.832;2023-07-20T09:59:41;92826.50;;;28.03;50.81
12471;BME280;36499;46.484;13.832;2023-07-20T10:02:20;92831.78;;;27.91;49.71
12471;BME280;36499;46.484;13.832;2023-07-20T10:04:53;92830.72;;;27.84;51.59
12471;BME280;36499;46.484;13.832;2023-07-20T10:07:23;92834.69;;;28.07;53.62
12471;BME280;36499;46.484;13.832;2023-07-20T10:09:54;92830.09;;;28.07;51.54
12471;BME280;36499;46.484;13.832;2023-07-20T10:12:23;92826.44;;;28.33;52.44
12471;BME280;36499;46.484;13.832;2023-07-20T10:15:03;92827.88;;;28.72;51.74
12471;BME280;36499;46.484;13.832;2023-07-20T10:17:37;92827.69;;;28.56;49.84
12471;BME280;36499;46.484;13.832;2023-07-20T10:20:09;92824.25;;;28.68;50.31
12471;BME280;36499;46.484;13.832;2023-07-20T10:22:38;92828.09;;;28.46;48.61
12471;BME280;36499;46.484;13.832;2023-07-20T10:25:07;92830.91;;;28.49;48.92
12471;BME280;36499;46.484;13.832;2023-07-20T10:27:34;92821.53;;;28.35;49.72
12471;BME280;36499;46.484;13.832;2023-07-20T10:30:02;92823.91;;;28.36;48.40
12471;BME280;36499;46.484;13.832;2023-07-20T10:32:30;92824.06;;;28.52;50.33
12471;BME280;36499;46.484;13.832;2023-07-20T10:34:58;92829.56;;;28.55;50.06
12471;BME280;36499;46.484;13.832;2023-07-20T10:37:52;92831.25;;;28.81;46.22
12471;BME280;36499;46.484;13.832;2023-07-20T10:40:31;92825.78;;;28.89;45.77
12471;BME280;36499;46.484;13.832;2023-07-20T10:43:04;92822.13;;;28.94;46.18
12471;BME280;36499;46.484;13.832;2023-07-20T10:45:41;92816.13;;;29.21;46.72
12471;BME280;36499;46.484;13.832;2023-07-20T10:48:14;92813.34;;;29.30;44.65
12471;BME280;36499;46.484;13.832;2023-07-20T10:50:44;92819.34;;;29.27;44.28
12471;BME280;36499;46.484;13.832;2023-07-20T10:53:16;92815.63;;;29.07;43.96
12471;BME280;36499;46.484;13.832;2023-07-20T10:55:43;92815.84;;;28.90;45.29
12471;BME280;36499;46.484;13.832;2023-07-20T10:58:16;92816.19;;;29.00;46.28
12471;BME280;36499;46.484;13.832;2023-07-20T11:00:57;92812.84;;;29.03;43.68
12471;BME280;36499;46.484;13.832;2023-07-20T11:03:31;92806.53;;;29.32;44.16
12471;BME280;36499;46.484;13.832;2023-07-20T11:06:29;92798.88;;;29.22;43.05
12471;BME280;36499;46.484;13.832;2023-07-20T11:09:08;92796.91;;;29.31;43.07
12471;BME280;36499;46.484;13.832;2023-07-20T11:11:38;92792.75;;;29.34;42.14
12471;BME280;36499;46.484;13.832;2023-07-20T11:14:07;92794.88;;;29.28;42.09
12471;BME280;36499;46.484;13.832;2023-07-20T11:16:40;92782.69;;;29.31;41.74
12471;BME280;36499;46.484;13.832;2023-07-20T11:19:16;92783.91;;;29.45;41.93
12471;BME280;36499;46.484;13.832;2023-07-20T11:21:46;92781.44;;;29.65;42.65
12471;BME280;36499;46.484;13.832;2023-07-20T11:24:13;92784.03;;;29.49;41.62
12471;BME280;36499;46.484;13.832;2023-07-20T11:26:42;92787.84;;;29.48;41.70
12471;BME280;36499;46.484;13.832;2023-07-20T11:29:10;92768.56;;;29.46;40.79
12471;BME280;36499;46.484;13.832;2023-07-20T11:31:38;92780.72;;;29.07;40.62
12471;BME280;36499;46.484;13.832;2023-07-20T11:34:06;92776.50;;;28.61;40.81
12471;BME280;36499;46.484;13.832;2023-07-20T11:36:34;92770.53;;;28.55;42.47
12471;BME280;36499;46.484;13.832;2023-07-20T11:39:02;92769.97;;;28.83;42.48
12471;BME280;36499;46.484;13.832;2023-07-20T11:41:31;92767.84;;;28.76;42.19
12471;BME280;36499;46.484;13.832;2023-07-20T11:43:58;92768.16;;;28.75;41.24
12471;BME280;36499;46.484;13.832;2023-07-20T11:46:25;92768.97;;;28.54;42.85
12471;BME280;36499;46.484;13.832;2023-07-20T11:48:58;92756.84;;;28.69;41.94
12471;BME280;36499;46.484;13.832;2023-07-20T11:51:27;92749.94;;;28.92;41.63
12471;BME280;36499;46.484;13.832;2023-07-20T11:53:55;92750.09;;;29.20;43.31
12471;BME280;36499;46.484;13.832;2023-07-20T11:56:25;92752.44;;;29.10;43.10
12471;BME280;36499;46.484;13.832;2023-07-20T11:58:55;92743.75;;;29.37;42.53
12471;BME280;36499;46.484;13.832;2023-07-20T12:01:26;92755.16;;;29.34;41.94
12471;BME280;36499;46.484;13.832;2023-07-20T12:03:56;92745.66;;;29.36;42.20
12471;BME280;36499;46.484;13.832;2023-07-20T12:06:24;92742.94;;;29.24;42.49
12471;BME280;36499;46.484;13.832;2023-07-20T12:08:57;92734.53;;;29.14;42.24
12471;BME280;36499;46.484;13.832;2023-07-20T12:11:33;92739.81;;;29.34;40.97
12471;BME280;36499;46.484;13.832;2023-07-20T12:14:00;92736.44;;;29.13;42.43
12471;BME280;36499;46.484;13.832;2023-07-20T12:16:29;92731.31;;;29.32;41.18
12471;BME280;36499;46.484;13.832;2023-07-20T12:19:01;92726.94;;;29.28;42.09
12471;BME280;36499;46.484;13.832;2023-07-20T12:21:28;92709.47;;;29.10;41.71
12471;BME280;36499;46.484;13.832;2023-07-20T12:23:57;92706.88;;;28.77;41.90
12471;BME280;36499;46.484;13.832;2023-07-20T12:26:25;92717.66;;;28.56;42.18
12471;BME280;36499;46.484;13.832;2023-07-20T12:28:54;92710.56;;;28.39;42.39
12471;BME280;36499;46.484;13.832;2023-07-20T12:31:21;92705.44;;;28.34;43.41
12471;BME280;36499;46.484;13.832;2023-07-20T12:33:50;92707.09;;;28.27;43.38
12471;BME280;36499;46.484;13.832;2023-07-20T12:36:17;92702.63;;;28.31;44.31
12471;BME280;36499;46.484;13.832;2023-07-20T12:38:45;92698.78;;;28.20;43.80
12471;BME280;36499;46.484;13.832;2023-07-20T12:41:13;92695.75;;;28.09;44.64
12471;BME280;36499;46.484;13.832;2023-07-20T12:43:41;92700.16;;;28.05;44.45
12471;BME280;36499;46.484;13.832;2023-07-20T12:46:11;92699.00;;;27.94;45.08
12471;BME280;36499;46.484;13.832;2023-07-20T12:48:40;92694.50;;;27.86;45.71
12471;BME280;36499;46.484;13.832;2023-07-20T12:51:08;92696.19;;;27.90;46.44
12471;BME280;36499;46.484;13.832;2023-07-20T12:53:35;92694.31;;;28.24;46.34
12471;BME280;36499;46.484;13.832;2023-07-20T12:56:03;92688.16;;;28.56;44.70
12471;BME280;36499;46.484;13.832;2023-07-20T12:58:30;92682.41;;;28.90;44.10
12471;BME280;36499;46.484;13.832;2023-07-20T13:00:58;92684.41;;;29.05;43.61